createdAt,value
2022-08-25T00:00:12.365Z,972.45
2022-08-25T00:01:12.362Z,972.43
2022-08-25T00:02:12.366Z,972.44
2022-08-25T00:03:12.399Z,972.42
2022-08-25T00:04:12.309Z,972.43
2022-08-25T00:05:12.355Z,972.40
2022-08-25T00:06:12.274Z,972.34
2022-08-25T00:07:12.240Z,972.44
2022-08-25T00:08:13.223Z,972.38
2022-08-25T00:09:12.198Z,972.34
2022-08-25T00:10:12.197Z,972.45
2022-08-25T00:11:12.203Z,972.42
2022-08-25T00:12:12.165Z,972.39
2022-08-25T00:13:12.139Z,972.49
2022-08-25T00:14:12.122Z,972.45
2022-08-25T00:15:12.324Z,972.39
2022-08-25T00:16:12.157Z,972.38
2022-08-25T00:17:12.177Z,972.43
2022-08-25T00:18:20.031Z,972.36
2022-08-25T00:19:13.032Z,972.39
2022-08-25T00:20:12.020Z,972.40
2022-08-25T00:21:12.037Z,972.40
2022-08-25T00:22:11.985Z,972.43
2022-08-25T00:23:11.978Z,972.42
2022-08-25T00:24:11.970Z,972.46
2022-08-25T00:25:11.941Z,972.48
2022-08-25T00:26:12.001Z,972.47
2022-08-25T00:27:11.905Z,972.45
2022-08-25T00:29:54.058Z,972.43
2022-08-25T00:30:54.129Z,972.41
2022-08-25T00:31:54.087Z,972.44
2022-08-25T00:32:56.878Z,972.42
2022-08-25T00:33:55.305Z,972.41
2022-08-25T00:34:55.147Z,972.41
2022-08-25T00:35:55.133Z,972.42
2022-08-25T00:36:55.467Z,972.39
2022-08-25T00:37:55.104Z,972.43
2022-08-25T00:38:55.121Z,972.44
2022-08-25T00:39:55.140Z,972.46
2022-08-25T00:40:55.086Z,972.45
2022-08-25T00:41:55.082Z,972.49
2022-08-25T00:42:55.028Z,972.45
2022-08-25T00:43:55.032Z,972.41
2022-08-25T00:44:54.989Z,972.43
2022-08-25T00:45:55.005Z,972.46
2022-08-25T00:46:55.633Z,972.46
2022-08-25T00:47:54.959Z,972.44
2022-08-25T00:48:55.920Z,972.42
2022-08-25T00:49:54.895Z,972.43
2022-08-25T00:50:54.877Z,972.42
2022-08-25T00:51:54.889Z,972.47
2022-08-25T00:52:54.850Z,972.42
2022-08-25T00:53:54.881Z,972.47
2022-08-25T00:54:54.818Z,972.49
2022-08-25T00:55:54.793Z,972.49
2022-08-25T00:56:54.808Z,972.49
2022-08-25T00:57:54.770Z,972.44
2022-08-25T00:58:54.792Z,972.48
2022-08-25T00:59:54.738Z,972.43
2022-08-25T01:00:54.717Z,972.36
2022-08-25T01:01:54.784Z,972.44
2022-08-25T01:02:54.744Z,972.43
2022-08-25T01:03:54.694Z,972.44
2022-08-25T01:04:54.647Z,972.40
2022-08-25T01:05:54.625Z,972.41
2022-08-25T01:06:54.643Z,972.41
2022-08-25T01:07:58.615Z,972.46
2022-08-25T01:08:54.626Z,972.40
2022-08-25T01:09:54.621Z,972.41
2022-08-25T01:10:54.545Z,972.39
2022-08-25T01:11:54.562Z,972.38
2022-08-25T01:12:54.504Z,972.34
2022-08-25T01:13:54.557Z,972.39
2022-08-25T01:14:54.485Z,972.37
2022-08-25T01:15:54.493Z,972.33
2022-08-25T01:16:54.484Z,972.39
2022-08-25T01:17:54.415Z,972.38
2022-08-25T01:18:54.416Z,972.36
2022-08-25T01:19:54.375Z,972.33
2022-08-25T01:20:54.386Z,972.33
2022-08-25T01:21:54.385Z,972.27
2022-08-25T01:22:55.225Z,972.29
2022-08-25T01:23:54.327Z,972.28
2022-08-25T01:24:54.832Z,972.28
2022-08-25T01:25:54.275Z,972.25
2022-08-25T01:26:54.284Z,972.25
2022-08-25T01:27:54.238Z,972.25
2022-08-25T01:28:54.245Z,972.23
2022-08-25T01:29:54.218Z,972.24
2022-08-25T01:30:54.219Z,972.25
2022-08-25T01:31:54.339Z,972.17
2022-08-25T01:32:54.151Z,972.14
2022-08-25T01:33:54.193Z,972.17
2022-08-25T01:34:54.116Z,972.20
2022-08-25T01:35:54.104Z,972.22
2022-08-25T01:36:54.123Z,972.14
2022-08-25T01:37:54.076Z,972.14
2022-08-25T01:38:54.054Z,972.15
2022-08-25T01:39:54.095Z,972.18
2022-08-25T01:40:54.014Z,972.16
2022-08-25T01:41:54.033Z,972.20
2022-08-25T01:42:54.012Z,972.13
2022-08-25T01:43:54.008Z,972.18
2022-08-25T01:44:53.946Z,972.17
2022-08-25T01:45:53.950Z,972.23
2022-08-25T01:46:53.945Z,972.17
2022-08-25T01:47:53.897Z,972.19
2022-08-25T01:48:53.885Z,972.21
2022-08-25T01:49:53.858Z,972.18
2022-08-25T01:50:53.859Z,972.19
2022-08-25T01:51:53.862Z,972.19
2022-08-25T01:52:54.824Z,972.19
2022-08-25T01:53:53.799Z,972.21
2022-08-25T01:54:53.780Z,972.26
2022-08-25T01:55:54.767Z,972.18
2022-08-25T01:56:55.558Z,972.21
2022-08-25T01:57:53.733Z,972.25
2022-08-25T01:58:53.714Z,972.30
2022-08-25T01:59:53.693Z,972.20
2022-08-25T02:00:53.674Z,972.22
2022-08-25T02:01:59.676Z,972.23
2022-08-25T02:02:55.618Z,972.17
2022-08-25T02:03:53.686Z,972.14
2022-08-25T02:04:53.691Z,972.17
2022-08-25T02:05:53.601Z,972.15
2022-08-25T02:06:53.632Z,972.19
2022-08-25T02:07:53.562Z,972.18
2022-08-25T02:08:53.531Z,972.15
2022-08-25T02:09:53.513Z,972.14
2022-08-25T02:10:53.499Z,972.16
2022-08-25T02:11:53.512Z,972.18
2022-08-25T02:12:54.436Z,972.10
2022-08-25T02:13:53.480Z,972.15
2022-08-25T02:14:53.435Z,972.15
2022-08-25T02:15:53.476Z,972.15
2022-08-25T02:16:53.536Z,972.14
2022-08-25T02:17:53.379Z,972.13
2022-08-25T02:18:53.354Z,972.12
2022-08-25T02:19:53.399Z,972.12
2022-08-25T02:20:53.342Z,972.12
2022-08-25T02:21:53.340Z,972.13
2022-08-25T02:22:57.112Z,972.15
2022-08-25T02:23:53.346Z,972.10
2022-08-25T02:24:53.262Z,972.10
2022-08-25T02:25:53.239Z,972.14
2022-08-25T02:26:53.372Z,972.16
2022-08-25T02:27:53.210Z,972.19
2022-08-25T02:28:53.206Z,972.15
2022-08-25T02:29:53.165Z,972.07
2022-08-25T02:30:58.659Z,972.14
2022-08-25T02:31:54.181Z,972.16
2022-08-25T02:32:53.121Z,972.17
2022-08-25T02:33:53.144Z,972.14
2022-08-25T02:34:53.093Z,972.15
2022-08-25T02:35:53.075Z,972.13
2022-08-25T02:36:53.087Z,972.19
2022-08-25T02:37:53.486Z,972.17
2022-08-25T02:38:53.027Z,972.14
2022-08-25T02:39:53.069Z,972.14
2022-08-25T02:40:52.999Z,972.16
2022-08-25T02:41:53.003Z,972.12
2022-08-25T02:42:52.952Z,972.13
2022-08-25T02:43:52.946Z,972.10
2022-08-25T02:44:52.920Z,972.09
2022-08-25T02:45:52.947Z,972.09
2022-08-25T02:46:52.923Z,972.10
2022-08-25T02:47:52.870Z,972.09
2022-08-25T02:48:52.976Z,972.11
2022-08-25T02:49:52.870Z,972.11
2022-08-25T02:50:52.826Z,972.09
2022-08-25T02:51:52.844Z,972.04
2022-08-25T02:52:52.773Z,972.02
2022-08-25T02:53:53.805Z,972.04
2022-08-25T02:54:52.740Z,972.02
2022-08-25T02:55:52.726Z,971.99
2022-08-25T02:56:52.749Z,971.98
2022-08-25T02:57:52.694Z,972.01
2022-08-25T02:58:52.712Z,972.03
2022-08-25T02:59:52.698Z,972.05
2022-08-25T03:00:52.697Z,972.02
2022-08-25T03:01:52.664Z,972.00
2022-08-25T03:02:52.602Z,972.01
2022-08-25T03:03:52.645Z,972.05
2022-08-25T03:04:52.624Z,972.01
2022-08-25T03:05:52.559Z,971.99
2022-08-25T03:06:52.574Z,972.01
2022-08-25T03:07:52.514Z,972.01
2022-08-25T03:08:52.533Z,972.03
2022-08-25T03:09:52.485Z,971.97
2022-08-25T03:10:52.501Z,972.04
2022-08-25T03:11:52.492Z,972.06
2022-08-25T03:12:52.436Z,971.99
2022-08-25T03:13:52.462Z,972.01
2022-08-25T03:14:52.398Z,972.00
2022-08-25T03:15:52.380Z,971.98
2022-08-25T03:16:52.504Z,972.03
2022-08-25T03:17:52.364Z,971.99
2022-08-25T03:18:52.329Z,972.00
2022-08-25T03:19:52.325Z,972.03
2022-08-25T03:20:52.307Z,971.98
2022-08-25T03:21:52.350Z,972.02
2022-08-25T03:22:52.264Z,972.01
2022-08-25T03:23:52.306Z,971.98
2022-08-25T03:24:52.231Z,972.05
2022-08-25T03:25:52.202Z,971.99
2022-08-25T03:26:53.218Z,971.99
2022-08-25T03:27:52.178Z,972.00
2022-08-25T03:28:52.161Z,972.00
2022-08-25T03:29:52.149Z,972.01
2022-08-25T03:30:55.828Z,972.00
2022-08-25T03:31:52.213Z,972.02
2022-08-25T03:32:52.094Z,971.95
2022-08-25T03:33:52.093Z,971.95
2022-08-25T03:34:52.069Z,972.05
2022-08-25T03:35:52.032Z,971.94
2022-08-25T03:36:52.050Z,971.98
2022-08-25T03:37:51.997Z,971.96
2022-08-25T03:38:51.978Z,971.96
2022-08-25T03:39:51.978Z,971.92
2022-08-25T03:40:51.950Z,971.93
2022-08-25T03:41:51.965Z,971.97
2022-08-25T03:42:51.920Z,971.94
2022-08-25T03:43:51.916Z,971.91
2022-08-25T03:44:51.870Z,971.88
2022-08-25T03:45:51.966Z,971.99
2022-08-25T03:46:51.919Z,971.92
2022-08-25T03:47:51.841Z,971.94
2022-08-25T03:48:51.809Z,971.92
2022-08-25T03:49:51.788Z,971.92
2022-08-25T03:50:52.186Z,971.91
2022-08-25T03:51:51.809Z,971.91
2022-08-25T03:52:51.757Z,971.89
2022-08-25T03:53:51.727Z,971.86
2022-08-25T03:54:51.750Z,971.87
2022-08-25T03:55:51.703Z,971.87
2022-08-25T03:56:51.784Z,971.84
2022-08-25T03:57:51.741Z,971.84
2022-08-25T03:58:51.640Z,971.84
2022-08-25T03:59:51.645Z,971.83
2022-08-25T04:00:51.619Z,971.85
2022-08-25T04:01:55.103Z,971.80
2022-08-25T04:02:52.576Z,971.82
2022-08-25T04:03:51.761Z,971.81
2022-08-25T04:04:51.523Z,971.78
2022-08-25T04:05:51.530Z,971.80
2022-08-25T04:06:51.530Z,971.85
2022-08-25T04:07:51.484Z,971.81
2022-08-25T04:08:51.460Z,971.78
2022-08-25T04:09:51.447Z,971.76
2022-08-25T04:10:51.421Z,971.72
2022-08-25T04:11:52.890Z,971.77
2022-08-25T04:12:51.387Z,971.73
2022-08-25T04:13:51.373Z,971.73
2022-08-25T04:14:51.361Z,971.78
2022-08-25T04:15:51.339Z,971.76
2022-08-25T04:16:51.476Z,971.81
2022-08-25T04:17:51.924Z,971.74
2022-08-25T04:18:51.296Z,971.76
2022-08-25T04:19:51.276Z,971.79
2022-08-25T04:20:51.249Z,971.78
2022-08-25T04:21:51.284Z,971.85
2022-08-25T04:22:51.232Z,971.80
2022-08-25T04:23:51.205Z,971.85
2022-08-25T04:24:51.197Z,971.83
2022-08-25T04:25:51.172Z,971.86
2022-08-25T04:26:51.208Z,971.86
2022-08-25T04:27:51.159Z,971.83
2022-08-25T04:28:51.119Z,971.82
2022-08-25T04:29:51.098Z,971.82
2022-08-25T04:30:52.167Z,971.85
2022-08-25T04:31:52.170Z,971.83
2022-08-25T04:32:51.049Z,971.82
2022-08-25T04:33:51.080Z,971.80
2022-08-25T04:34:51.022Z,971.81
2022-08-25T04:35:50.996Z,971.77
2022-08-25T04:36:52.559Z,971.79
2022-08-25T04:37:50.972Z,971.79
2022-08-25T04:38:50.937Z,971.83
2022-08-25T04:39:50.950Z,971.75
2022-08-25T04:40:50.913Z,971.79
2022-08-25T04:41:50.965Z,971.74
2022-08-25T04:42:50.871Z,971.73
2022-08-25T04:43:50.890Z,971.76
2022-08-25T04:44:50.840Z,971.69
2022-08-25T04:45:50.867Z,971.73
2022-08-25T04:46:50.849Z,971.67
2022-08-25T04:47:54.812Z,971.69
2022-08-25T04:48:51.778Z,971.79
2022-08-25T04:49:50.773Z,971.67
2022-08-25T04:50:50.738Z,971.68
2022-08-25T04:51:50.761Z,971.64
2022-08-25T04:52:50.722Z,971.57
2022-08-25T04:53:50.793Z,971.61
2022-08-25T04:54:50.677Z,971.57
2022-08-25T04:55:50.675Z,971.59
2022-08-25T04:56:50.671Z,971.59
2022-08-25T04:57:50.628Z,971.62
2022-08-25T04:58:50.610Z,971.63
2022-08-25T04:59:50.584Z,971.63
2022-08-25T05:00:50.601Z,971.64
2022-08-25T05:01:52.335Z,971.62
2022-08-25T05:02:50.541Z,971.60
2022-08-25T05:03:50.542Z,971.67
2022-08-25T05:04:50.557Z,971.59
2022-08-25T05:05:50.476Z,971.57
2022-08-25T05:06:50.589Z,971.59
2022-08-25T05:07:50.448Z,971.63
2022-08-25T05:08:50.427Z,971.62
2022-08-25T05:09:50.435Z,971.60
2022-08-25T05:10:50.394Z,971.60
2022-08-25T05:11:50.433Z,971.60
2022-08-25T05:12:50.369Z,971.61
2022-08-25T05:13:51.544Z,971.61
2022-08-25T05:14:50.322Z,971.68
2022-08-25T05:15:50.899Z,971.57
2022-08-25T05:16:50.401Z,971.60
2022-08-25T05:17:53.930Z,971.63
2022-08-25T05:18:52.268Z,971.61
2022-08-25T05:19:50.250Z,971.60
2022-08-25T05:20:50.221Z,971.62
2022-08-25T05:21:50.254Z,971.61
2022-08-25T05:22:50.267Z,971.58
2022-08-25T05:23:50.281Z,971.61
2022-08-25T05:24:50.192Z,971.60
2022-08-25T05:25:50.145Z,971.64
2022-08-25T05:26:50.168Z,971.53
2022-08-25T05:27:50.107Z,971.57
2022-08-25T05:28:50.107Z,971.58
2022-08-25T05:29:50.081Z,971.65
2022-08-25T05:30:50.091Z,971.68
2022-08-25T05:31:51.010Z,971.71
2022-08-25T05:32:51.059Z,971.69
2022-08-25T05:33:50.063Z,971.62
2022-08-25T05:34:50.002Z,971.72
2022-08-25T05:35:49.993Z,971.67
2022-08-25T05:36:50.007Z,971.71
2022-08-25T05:37:49.953Z,971.68
2022-08-25T05:38:50.080Z,971.68
2022-08-25T05:39:49.957Z,971.69
2022-08-25T05:40:49.891Z,971.65
2022-08-25T05:41:49.935Z,971.61
2022-08-25T05:42:49.877Z,971.64
2022-08-25T05:43:49.910Z,971.66
2022-08-25T05:44:49.853Z,971.60
2022-08-25T05:45:49.841Z,971.66
2022-08-25T05:46:49.833Z,971.62
2022-08-25T05:47:49.781Z,971.63
2022-08-25T05:48:49.783Z,971.59
2022-08-25T05:49:49.749Z,971.65
2022-08-25T05:50:49.751Z,971.68
2022-08-25T05:51:49.763Z,971.67
2022-08-25T05:52:49.707Z,971.68
2022-08-25T05:53:49.724Z,971.67
2022-08-25T05:54:49.669Z,971.67
2022-08-25T05:55:49.677Z,971.65
2022-08-25T05:56:49.690Z,971.71
2022-08-25T05:57:49.651Z,971.67
2022-08-25T05:58:49.608Z,971.64
2022-08-25T05:59:49.607Z,971.71
2022-08-25T06:00:49.662Z,971.69
2022-08-25T06:01:49.636Z,971.79
2022-08-25T06:02:49.549Z,971.69
2022-08-25T06:03:49.589Z,971.76
2022-08-25T06:04:49.511Z,971.73
2022-08-25T06:05:49.495Z,971.64
2022-08-25T06:06:49.582Z,971.65
2022-08-25T06:07:49.466Z,971.65
2022-08-25T06:08:49.468Z,971.59
2022-08-25T06:09:49.438Z,971.57
2022-08-25T06:10:49.525Z,971.46
2022-08-25T06:11:54.067Z,971.50
2022-08-25T06:12:51.400Z,971.48
2022-08-25T06:13:49.461Z,971.63
2022-08-25T06:14:49.360Z,971.66
2022-08-25T06:15:49.349Z,971.63
2022-08-25T06:16:49.415Z,971.66
2022-08-25T06:17:49.356Z,971.64
2022-08-25T06:18:49.330Z,971.64
2022-08-25T06:19:49.288Z,971.73
2022-08-25T06:20:49.264Z,971.66
2022-08-25T06:21:49.363Z,971.65
2022-08-25T06:22:49.242Z,971.69
2022-08-25T06:23:49.273Z,971.63
2022-08-25T06:24:49.211Z,971.60
2022-08-25T06:25:49.186Z,971.61
2022-08-25T06:26:49.236Z,971.58
2022-08-25T06:27:49.154Z,971.59
2022-08-25T06:28:49.154Z,971.57
2022-08-25T06:29:49.124Z,971.58
2022-08-25T06:30:49.120Z,971.55
2022-08-25T06:31:49.171Z,971.54
2022-08-25T06:32:49.088Z,971.43
2022-08-25T06:33:49.099Z,971.42
2022-08-25T06:34:49.047Z,971.35
2022-08-25T06:35:49.051Z,971.30
2022-08-25T06:36:49.506Z,971.31
2022-08-25T06:37:49.004Z,971.39
2022-08-25T06:38:49.003Z,971.48
2022-08-25T06:39:49.027Z,971.48
2022-08-25T06:40:48.979Z,971.43
2022-08-25T06:41:48.985Z,971.57
2022-08-25T06:42:48.933Z,971.61
2022-08-25T06:43:52.916Z,971.53
2022-08-25T06:44:50.906Z,971.53
2022-08-25T06:45:48.895Z,971.44
2022-08-25T06:46:49.276Z,971.54
2022-08-25T06:47:48.869Z,971.47
2022-08-25T06:48:49.843Z,971.49
2022-08-25T06:49:48.830Z,971.44
2022-08-25T06:50:48.882Z,971.47
2022-08-25T06:51:48.839Z,971.42
2022-08-25T06:52:48.800Z,971.48
2022-08-25T06:53:48.815Z,971.45
2022-08-25T06:54:49.194Z,971.42
2022-08-25T06:55:48.741Z,971.36
2022-08-25T06:56:49.629Z,971.40
2022-08-25T06:57:48.730Z,971.36
2022-08-25T06:58:48.709Z,971.42
2022-08-25T06:59:48.693Z,971.26
2022-08-25T07:00:48.704Z,971.15
2022-08-25T07:01:49.708Z,971.24
2022-08-25T07:02:48.661Z,971.28
2022-08-25T07:03:48.697Z,971.34
2022-08-25T07:04:48.624Z,971.33
2022-08-25T07:05:48.604Z,971.34
2022-08-25T07:06:48.627Z,971.28
2022-08-25T07:07:48.683Z,971.32
2022-08-25T07:08:48.579Z,971.32
2022-08-25T07:09:48.555Z,971.24
2022-08-25T07:10:48.531Z,971.21
2022-08-25T07:11:48.560Z,971.22
2022-08-25T07:12:49.368Z,971.18
2022-08-25T07:13:48.527Z,971.24
2022-08-25T07:15:03.526Z,971.17
2022-08-25T07:15:50.503Z,971.20
2022-08-25T07:16:50.425Z,971.18
2022-08-25T07:17:49.438Z,971.26
2022-08-25T07:18:49.306Z,971.34
2022-08-25T07:19:48.396Z,971.41
2022-08-25T07:20:48.388Z,971.44
2022-08-25T07:21:48.431Z,971.54
2022-08-25T07:22:48.362Z,971.58
2022-08-25T07:23:48.354Z,971.51
2022-08-25T07:24:48.329Z,971.54
2022-08-25T07:25:48.312Z,971.54
2022-08-25T07:26:48.328Z,971.57
2022-08-25T07:27:48.300Z,971.51
2022-08-25T07:28:48.281Z,971.48
2022-08-25T07:29:48.255Z,971.45
2022-08-25T07:30:51.890Z,971.47
2022-08-25T07:31:48.298Z,971.52
2022-08-25T07:32:48.210Z,971.44
2022-08-25T07:33:49.252Z,971.41
2022-08-25T07:34:51.842Z,971.47
2022-08-25T07:35:48.182Z,971.44
2022-08-25T07:36:48.185Z,971.48
2022-08-25T07:37:49.575Z,971.51
2022-08-25T07:38:49.128Z,971.47
2022-08-25T07:39:48.214Z,971.47
2022-08-25T07:40:48.107Z,971.34
2022-08-25T07:41:51.946Z,971.31
2022-08-25T07:42:48.076Z,971.45
2022-08-25T07:43:48.138Z,971.45
2022-08-25T07:44:48.044Z,971.45
2022-08-25T07:45:49.084Z,971.45
2022-08-25T07:46:48.254Z,971.46
2022-08-25T07:47:48.014Z,971.45
2022-08-25T07:48:53.219Z,971.47
2022-08-25T07:49:48.996Z,971.46
2022-08-25T07:50:47.976Z,971.50
2022-08-25T07:52:04.039Z,971.42
2022-08-25T07:52:52.164Z,971.54
2022-08-25T07:53:49.936Z,971.39
2022-08-25T07:54:47.956Z,971.43
2022-08-25T07:55:47.881Z,971.51
2022-08-25T07:56:47.937Z,971.47
2022-08-25T07:57:49.907Z,971.64
2022-08-25T07:58:48.860Z,971.50
2022-08-25T07:59:47.831Z,971.49
2022-08-25T08:00:47.816Z,971.43
2022-08-25T08:01:47.870Z,971.53
2022-08-25T08:02:47.845Z,971.53
2022-08-25T08:03:51.030Z,971.48
2022-08-25T08:04:47.769Z,971.48
2022-08-25T08:05:47.742Z,971.48
2022-08-25T08:06:47.751Z,971.49
2022-08-25T08:07:47.792Z,971.46
2022-08-25T08:08:47.691Z,971.47
2022-08-25T08:09:55.896Z,971.50
2022-08-25T08:11:04.057Z,971.51
2022-08-25T08:11:53.745Z,971.44
2022-08-25T08:12:47.647Z,971.54
2022-08-25T08:13:47.634Z,971.55
2022-08-25T08:14:47.624Z,971.44
2022-08-25T08:15:47.661Z,971.46
2022-08-25T08:16:47.621Z,971.51
2022-08-25T08:17:47.591Z,971.52
2022-08-25T08:18:47.571Z,971.51
2022-08-25T08:19:47.564Z,971.57
2022-08-25T08:20:47.535Z,971.52
2022-08-25T08:21:47.555Z,971.50
2022-08-25T08:22:47.497Z,971.59
2022-08-25T08:23:47.512Z,971.58
2022-08-25T08:24:54.919Z,971.51
2022-08-25T08:25:48.447Z,971.55
2022-08-25T08:26:58.150Z,971.58
2022-08-25T08:27:49.430Z,971.58
2022-08-25T08:28:52.132Z,971.58
2022-08-25T08:29:47.421Z,971.55
2022-08-25T08:30:52.986Z,971.45
2022-08-25T08:31:48.954Z,971.47
2022-08-25T08:33:08.846Z,971.44
2022-08-25T08:33:49.408Z,971.46
2022-08-25T08:34:51.288Z,971.49
2022-08-25T08:35:47.316Z,971.43
2022-08-25T08:36:47.333Z,971.41
2022-08-25T08:37:47.295Z,971.38
2022-08-25T08:38:48.277Z,971.46
2022-08-25T08:39:47.299Z,971.41
2022-08-25T08:40:47.853Z,971.43
2022-08-25T08:42:07.654Z,971.40
2022-08-25T08:42:49.257Z,971.38
2022-08-25T08:43:47.229Z,971.34
2022-08-25T08:44:47.196Z,971.37
2022-08-25T08:45:47.182Z,971.45
2022-08-25T08:46:47.232Z,971.34
2022-08-25T08:47:47.167Z,971.28
2022-08-25T08:48:47.149Z,971.32
2022-08-25T08:49:47.140Z,971.30
2022-08-25T08:50:47.116Z,971.33
2022-08-25T08:51:47.167Z,971.36
2022-08-25T08:52:48.811Z,971.27
2022-08-25T08:53:47.088Z,971.29
2022-08-25T08:54:47.082Z,971.32
2022-08-25T08:55:52.323Z,971.38
2022-08-25T08:56:49.096Z,971.27
2022-08-25T08:58:47.022Z,971.32
2022-08-25T08:59:47.004Z,971.40
2022-08-25T09:00:52.267Z,971.10
2022-08-25T09:01:48.067Z,971.37
2022-08-25T09:02:52.039Z,971.31
2022-08-25T09:03:46.971Z,971.25
2022-08-25T09:04:47.921Z,971.35
2022-08-25T09:05:46.904Z,971.17
2022-08-25T09:06:47.982Z,971.22
2022-08-25T09:07:47.275Z,971.32
2022-08-25T09:08:46.877Z,971.33
2022-08-25T09:09:47.650Z,971.33
2022-08-25T09:10:46.887Z,971.40
2022-08-25T09:11:46.877Z,971.30
2022-08-25T09:12:48.205Z,971.38
2022-08-25T09:13:46.804Z,971.36
2022-08-25T09:14:46.807Z,971.14
2022-08-25T09:15:47.823Z,971.08
2022-08-25T09:16:46.800Z,971.25
2022-08-25T09:17:54.637Z,971.33
2022-08-25T09:18:51.088Z,971.30
2022-08-25T09:19:47.722Z,971.25
2022-08-25T09:20:46.714Z,971.29
2022-08-25T09:21:46.727Z,971.17
2022-08-25T09:22:46.742Z,971.28
2022-08-25T09:23:48.092Z,971.22
2022-08-25T09:24:46.670Z,971.10
2022-08-25T09:25:53.468Z,971.06
2022-08-25T09:26:48.667Z,971.09
2022-08-25T09:27:46.606Z,971.20
2022-08-25T09:28:46.609Z,971.25
2022-08-25T09:29:46.574Z,970.99
2022-08-25T09:30:46.615Z,971.12
2022-08-25T09:31:46.702Z,971.13
2022-08-25T09:32:48.940Z,970.97
2022-08-25T09:33:47.557Z,971.19
2022-08-25T09:34:46.508Z,971.20
2022-08-25T09:35:46.543Z,971.17
2022-08-25T09:36:46.524Z,971.15
2022-08-25T09:37:46.488Z,971.10
2022-08-25T09:38:46.461Z,971.13
2022-08-25T09:39:46.449Z,971.01
2022-08-25T09:40:46.438Z,971.04
2022-08-25T09:41:46.454Z,971.09
2022-08-25T09:42:49.659Z,971.03
2022-08-25T09:43:46.410Z,971.07
2022-08-25T09:44:46.458Z,971.09
2022-08-25T09:45:46.365Z,971.03
2022-08-25T09:46:46.475Z,971.01
2022-08-25T09:47:46.443Z,970.89
2022-08-25T09:48:46.338Z,971.01
2022-08-25T09:49:47.379Z,970.82
2022-08-25T09:50:46.733Z,970.88
2022-08-25T09:51:46.306Z,970.88
2022-08-25T09:52:46.269Z,970.76
2022-08-25T09:53:47.270Z,970.79
2022-08-25T09:54:46.881Z,970.74
2022-08-25T09:55:46.272Z,970.71
2022-08-25T09:56:46.276Z,970.53
2022-08-25T09:57:46.215Z,970.65
2022-08-25T09:58:46.186Z,970.79
2022-08-25T09:59:53.720Z,970.73
2022-08-25T10:00:47.151Z,970.76
2022-08-25T10:01:46.220Z,970.64
2022-08-25T10:02:46.223Z,970.63
2022-08-25T10:03:46.104Z,970.59
2022-08-25T10:04:46.626Z,970.72
2022-08-25T10:05:46.242Z,970.60
2022-08-25T10:06:46.168Z,970.66
2022-08-25T10:07:46.054Z,970.67
2022-08-25T10:08:47.047Z,970.59
2022-08-25T10:09:46.021Z,970.52
2022-08-25T10:10:46.019Z,970.59
2022-08-25T10:11:45.988Z,970.54
2022-08-25T10:12:46.018Z,970.51
2022-08-25T10:13:46.988Z,970.45
2022-08-25T10:14:45.948Z,970.47
2022-08-25T10:15:45.973Z,970.51
2022-08-25T10:16:46.940Z,970.41
2022-08-25T10:17:45.932Z,970.32
2022-08-25T10:18:45.935Z,970.39
2022-08-25T10:19:45.937Z,970.35
2022-08-25T10:20:45.863Z,970.22
2022-08-25T10:21:45.849Z,970.26
2022-08-25T10:22:45.868Z,970.46
2022-08-25T10:23:45.837Z,970.35
2022-08-25T10:24:45.813Z,970.49
2022-08-25T10:25:59.261Z,970.39
2022-08-25T10:26:46.781Z,970.34
2022-08-25T10:27:45.825Z,970.23
2022-08-25T10:28:45.760Z,970.17
2022-08-25T10:29:45.747Z,970.41
2022-08-25T10:30:45.784Z,970.35
2022-08-25T10:31:45.717Z,970.41
2022-08-25T10:32:45.821Z,970.36
2022-08-25T10:33:45.690Z,970.31
2022-08-25T10:34:45.681Z,970.33
2022-08-25T10:35:45.657Z,970.30
2022-08-25T10:36:47.116Z,970.32
2022-08-25T10:37:45.652Z,970.30
2022-08-25T10:38:45.625Z,970.24
2022-08-25T10:39:45.810Z,970.23
2022-08-25T10:40:46.596Z,970.20
2022-08-25T10:41:45.573Z,970.14
2022-08-25T10:42:45.587Z,970.21
2022-08-25T10:43:45.545Z,970.21
2022-08-25T10:44:45.543Z,970.16
2022-08-25T10:45:45.598Z,970.11
2022-08-25T10:46:45.579Z,970.09
2022-08-25T10:47:45.513Z,970.00
2022-08-25T10:48:45.530Z,969.99
2022-08-25T10:49:45.455Z,969.85
2022-08-25T10:50:45.765Z,969.87
2022-08-25T10:51:45.471Z,969.88
2022-08-25T10:52:45.459Z,969.96
2022-08-25T10:53:45.404Z,969.90
2022-08-25T10:54:45.408Z,969.92
2022-08-25T10:55:45.373Z,969.96
2022-08-25T10:56:45.368Z,969.91
2022-08-25T10:57:45.376Z,969.90
2022-08-25T10:58:45.349Z,969.85
2022-08-25T10:59:45.337Z,969.82
2022-08-25T11:00:48.163Z,969.81
2022-08-25T11:01:45.338Z,969.84
2022-08-25T11:02:45.309Z,969.80
2022-08-25T11:03:45.268Z,969.77
2022-08-25T11:04:45.289Z,969.80
2022-08-25T11:05:45.227Z,969.69
2022-08-25T11:06:45.214Z,969.69
2022-08-25T11:07:45.230Z,969.76
2022-08-25T11:08:45.194Z,969.71
2022-08-25T11:09:45.163Z,969.65
2022-08-25T11:10:45.761Z,969.74
2022-08-25T11:11:45.129Z,969.69
2022-08-25T11:12:45.146Z,969.66
2022-08-25T11:13:45.105Z,969.67
2022-08-25T11:14:45.108Z,969.82
2022-08-25T11:16:06.236Z,969.76
2022-08-25T11:16:48.538Z,969.66
2022-08-25T11:17:45.070Z,969.63
2022-08-25T11:18:46.031Z,969.68
2022-08-25T11:19:44.999Z,969.58
2022-08-25T11:20:45.008Z,969.61
2022-08-25T11:21:44.978Z,969.67
2022-08-25T11:22:44.990Z,969.61
2022-08-25T11:23:44.969Z,969.58
2022-08-25T11:24:44.980Z,969.61
2022-08-25T11:25:44.919Z,969.54
2022-08-25T11:26:45.033Z,969.48
2022-08-25T11:27:44.921Z,969.53
2022-08-25T11:28:44.925Z,969.51
2022-08-25T11:29:44.847Z,969.52
2022-08-25T11:30:44.892Z,969.54
2022-08-25T11:31:47.333Z,969.51
2022-08-25T11:32:45.833Z,969.51
2022-08-25T11:33:44.781Z,969.52
2022-08-25T11:34:44.769Z,969.54
2022-08-25T11:35:44.772Z,969.54
2022-08-25T11:36:45.868Z,969.58
2022-08-25T11:37:44.764Z,969.58
2022-08-25T11:38:44.704Z,969.65
2022-08-25T11:39:44.697Z,969.60
2022-08-25T11:40:44.701Z,969.51
2022-08-25T11:41:45.675Z,969.56
2022-08-25T11:42:44.716Z,969.61
2022-08-25T11:43:44.637Z,969.63
2022-08-25T11:44:53.322Z,969.65
2022-08-25T11:45:45.869Z,969.61
2022-08-25T11:46:44.601Z,969.59
2022-08-25T11:47:44.620Z,969.63
2022-08-25T11:48:44.560Z,969.64
2022-08-25T11:49:44.566Z,969.57
2022-08-25T11:50:44.543Z,969.48
2022-08-25T11:51:44.543Z,969.46
2022-08-25T11:52:44.580Z,969.47
2022-08-25T11:53:44.497Z,969.48
2022-08-25T11:54:44.496Z,969.47
2022-08-25T11:55:44.478Z,969.42
2022-08-25T11:56:44.435Z,969.44
2022-08-25T11:57:44.455Z,969.45
2022-08-25T11:58:44.426Z,969.46
2022-08-25T11:59:44.426Z,969.46
2022-08-25T12:00:45.407Z,969.44
2022-08-25T12:01:44.384Z,969.36
2022-08-25T12:02:44.396Z,969.38
2022-08-25T12:03:44.333Z,969.44
2022-08-25T12:04:45.711Z,969.36
2022-08-25T12:05:44.395Z,969.32
2022-08-25T12:06:44.283Z,969.32
2022-08-25T12:07:44.292Z,969.40
2022-08-25T12:08:44.255Z,969.40
2022-08-25T12:09:44.243Z,969.32
2022-08-25T12:10:44.224Z,969.29
2022-08-25T12:11:44.210Z,969.31
2022-08-25T12:12:44.239Z,969.27
2022-08-25T12:13:44.198Z,969.40
2022-08-25T12:14:44.168Z,969.32
2022-08-25T12:15:44.161Z,969.31
2022-08-25T12:16:44.171Z,969.33
2022-08-25T12:17:44.144Z,969.20
2022-08-25T12:18:45.774Z,969.15
2022-08-25T12:19:44.106Z,969.23
2022-08-25T12:20:44.069Z,969.15
2022-08-25T12:21:44.047Z,969.14
2022-08-25T12:22:44.072Z,969.13
2022-08-25T12:23:44.820Z,969.22
2022-08-25T12:24:47.732Z,969.19
2022-08-25T12:25:43.992Z,969.16
2022-08-25T12:26:46.169Z,969.29
2022-08-25T12:27:43.982Z,969.19
2022-08-25T12:28:44.069Z,969.21
2022-08-25T12:29:43.944Z,969.25
2022-08-25T12:30:43.937Z,969.23